Terminal Aerodrome Forecast
Issued by NWS

Home | Current Version | Previous Version | Text Only | Print | Product List | Glossary On
Versions: 1 2 3 4 5 6 7 8 9 10 11 12
160
FTUS45 KPIH 012320
TAFSUN
TAF
KSUN 012320Z 0200/0224 13010KT P6SM SCT080
     FM020400 33010KT P6SM SKC
     FM021800 12007KT P6SM SKC
      AMD LTD TO CLD VIS AND WIND 0206/0214=

USA.gov is the U.S. government's official web portal to all federal, state and local government web resources and services.